Terminal Aerodrome Forecast
Issued by NWS Portland, ME

Home | Current Version | Previous Version | Text Only | Print | Product List | Glossary On
Versions: 1 2 3 4 5 6 7 8 9 10 11 12 13 14
000
FTUS41 KGYX 301725
TAFCON
TAF
KCON 301725Z 3018/0118 VRB03KT P6SM OVC015
     FM010100 03002KT 6SM BR OVC009
     FM010900 VRB03KT 3SM BR OVC003
     FM011300 03007KT 5SM -SHRA BR OVC015=

USA.gov is the U.S. government's official web portal to all federal, state and local government web resources and services.